createdAt,value
2023-05-14T00:01:40.988Z,100863.78
2023-05-14T00:04:08.472Z,100860.75
2023-05-14T00:06:37.286Z,100855.50
2023-05-14T00:09:05.020Z,100858.56
2023-05-14T00:11:32.478Z,100852.44
2023-05-14T00:13:59.948Z,100852.97
2023-05-14T00:16:27.439Z,100863.34
2023-05-14T00:18:54.923Z,100857.25
2023-05-14T00:21:22.564Z,100859.09
2023-05-14T00:23:51.369Z,100851.84
2023-05-14T00:26:20.140Z,100842.88
2023-05-14T00:28:47.595Z,100843.53
2023-05-14T00:31:15.107Z,100852.09
2023-05-14T00:33:42.553Z,100843.63
2023-05-14T00:36:10.124Z,100833.78
2023-05-14T00:38:37.585Z,100829.25
2023-05-14T00:41:06.430Z,100837.41
2023-05-14T00:43:34.056Z,100836.00
2023-05-14T00:46:01.771Z,100828.50
2023-05-14T00:48:29.260Z,100828.59
2023-05-14T00:50:56.808Z,100827.56
2023-05-14T00:53:24.343Z,100831.63
2023-05-14T00:55:51.908Z,100831.38
2023-05-14T00:58:20.886Z,100828.38
2023-05-14T01:00:48.429Z,100831.78
2023-05-14T01:03:16.191Z,100829.13
2023-05-14T01:05:52.267Z,100831.78
2023-05-14T01:08:26.445Z,100829.50
2023-05-14T01:10:58.084Z,100822.31
2023-05-14T01:13:28.785Z,100823.72
2023-05-14T01:15:57.542Z,100825.75
2023-05-14T01:18:26.099Z,100827.16
2023-05-14T01:20:55.213Z,100826.50
2023-05-14T01:23:24.010Z,100824.03
2023-05-14T01:25:51.486Z,100827.72
2023-05-14T01:28:20.211Z,100825.59
2023-05-14T01:30:51.882Z,100817.06
2023-05-14T01:33:20.853Z,100824.72
2023-05-14T01:35:48.365Z,100813.38
2023-05-14T01:38:19.273Z,100828.75
2023-05-14T01:40:48.615Z,100823.41
2023-05-14T01:43:16.848Z,100817.88
2023-05-14T01:45:44.734Z,100821.19
2023-05-14T01:48:12.255Z,100822.59
2023-05-14T01:50:39.748Z,100814.41
2023-05-14T01:53:07.227Z,100825.88
2023-05-14T01:55:34.773Z,100829.09
2023-05-14T01:58:03.629Z,100822.50
2023-05-14T02:00:31.177Z,100821.56
2023-05-14T02:02:58.680Z,100825.16
2023-05-14T02:05:26.192Z,100817.34
2023-05-14T02:07:56.205Z,100823.41
2023-05-14T02:10:23.881Z,100823.88
2023-05-14T02:12:51.478Z,100817.34
2023-05-14T02:15:20.382Z,100812.91
2023-05-14T02:17:47.908Z,100811.47
2023-05-14T02:20:15.454Z,100803.34
2023-05-14T02:22:45.568Z,100810.81
2023-05-14T02:25:13.213Z,100804.25
2023-05-14T02:27:40.678Z,100800.59
2023-05-14T02:30:09.572Z,100807.13
2023-05-14T02:32:39.065Z,100803.88
2023-05-14T02:35:07.763Z,100803.56
2023-05-14T02:37:35.620Z,100799.94
2023-05-14T02:40:04.163Z,100798.03
2023-05-14T02:42:32.512Z,100795.09
2023-05-14T02:44:59.937Z,100796.19
2023-05-14T02:47:27.446Z,100794.72
2023-05-14T02:49:56.252Z,100795.34
2023-05-14T02:52:23.783Z,100790.56
2023-05-14T02:54:51.290Z,100794.44
2023-05-14T02:57:18.753Z,100794.81
2023-05-14T02:59:46.223Z,100800.34
2023-05-14T03:02:13.996Z,100787.94
2023-05-14T03:04:41.609Z,100805.03
2023-05-14T03:07:10.491Z,100786.28
2023-05-14T03:09:38.439Z,100804.28
2023-05-14T03:12:07.436Z,100797.31
2023-05-14T03:14:34.963Z,100791.97
2023-05-14T03:17:02.642Z,100794.38
2023-05-14T03:19:30.250Z,100792.06
2023-05-14T03:21:57.714Z,100795.75
2023-05-14T03:24:26.529Z,100793.91
2023-05-14T03:26:54.002Z,100790.78
2023-05-14T03:29:21.448Z,100787.28
2023-05-14T03:31:49.897Z,100783.16
2023-05-14T03:34:17.572Z,100788.59
2023-05-14T03:36:45.005Z,100789.22
2023-05-14T03:39:15.338Z,100791.06
2023-05-14T03:41:44.147Z,100785.28
2023-05-14T03:44:11.867Z,100791.81
2023-05-14T03:46:39.316Z,100777.47
2023-05-14T03:49:07.384Z,100786.19
2023-05-14T03:51:34.897Z,100783.69
2023-05-14T03:54:02.487Z,100783.53
2023-05-14T03:56:29.957Z,100784.91
2023-05-14T03:58:58.799Z,100784.25
2023-05-14T04:01:26.310Z,100786.38
2023-05-14T04:03:53.877Z,100785.09
2023-05-14T04:06:21.516Z,100785.94
2023-05-14T04:08:49.013Z,100792.25
2023-05-14T04:11:16.476Z,100792.59
2023-05-14T04:13:43.956Z,100792.72
2023-05-14T04:16:12.820Z,100787.03
2023-05-14T04:18:40.408Z,100787.38
2023-05-14T04:21:07.902Z,100785.81
2023-05-14T04:23:35.428Z,100787.16
2023-05-14T04:26:03.527Z,100803.44
2023-05-14T04:28:31.008Z,100791.75
2023-05-14T04:30:58.525Z,100792.59
2023-05-14T04:33:27.293Z,100800.69
2023-05-14T04:35:54.798Z,100796.66
2023-05-14T04:38:23.162Z,100809.47
2023-05-14T04:40:50.692Z,100806.63
2023-05-14T04:43:18.403Z,100810.72
2023-05-14T04:45:45.922Z,100803.91
2023-05-14T04:48:13.488Z,100803.78
2023-05-14T04:50:42.419Z,100810.53
2023-05-14T04:53:09.845Z,100806.09
2023-05-14T04:55:37.786Z,100805.91
2023-05-14T04:58:05.243Z,100807.75
2023-05-14T05:00:33.498Z,100814.75
2023-05-14T05:03:01.043Z,100813.72
2023-05-14T05:05:28.609Z,100810.72
2023-05-14T05:07:57.522Z,100809.44
2023-05-14T05:10:25.281Z,100808.97
2023-05-14T05:12:52.993Z,100805.50
2023-05-14T05:15:20.714Z,100812.94
2023-05-14T05:17:48.158Z,100814.59
2023-05-14T05:20:15.861Z,100812.56
2023-05-14T05:22:43.339Z,100816.34
2023-05-14T05:25:12.826Z,100817.25
2023-05-14T05:27:40.306Z,100811.09
2023-05-14T05:30:09.062Z,100813.22
2023-05-14T05:32:36.646Z,100810.00
2023-05-14T05:35:04.252Z,100809.91
2023-05-14T05:37:31.741Z,100820.09
2023-05-14T05:39:59.161Z,100810.72
2023-05-14T05:42:27.946Z,100814.88
2023-05-14T05:44:56.189Z,100816.41
2023-05-14T05:47:23.647Z,100812.53
2023-05-14T05:49:51.091Z,100807.75
2023-05-14T05:52:18.593Z,100812.34
2023-05-14T05:54:46.325Z,100802.22
2023-05-14T05:57:13.771Z,100809.09
2023-05-14T05:59:42.537Z,100807.97
2023-05-14T06:02:10.075Z,100807.84
2023-05-14T06:04:37.563Z,100798.91
2023-05-14T06:07:05.369Z,100802.19
2023-05-14T06:09:32.835Z,100801.69
2023-05-14T06:12:00.289Z,100805.81
2023-05-14T06:14:27.728Z,100810.66
2023-05-14T06:16:56.648Z,100803.81
2023-05-14T06:19:24.160Z,100803.31
2023-05-14T06:21:51.719Z,100801.13
2023-05-14T06:24:19.988Z,100803.31
2023-05-14T06:26:48.784Z,100805.16
2023-05-14T06:29:16.276Z,100804.97
2023-05-14T06:31:44.002Z,100801.31
2023-05-14T06:34:13.119Z,100793.47
2023-05-14T06:36:40.666Z,100806.72
2023-05-14T06:39:08.179Z,100796.44
2023-05-14T06:41:35.637Z,100803.31
2023-05-14T06:44:03.629Z,100809.16
2023-05-14T06:46:31.053Z,100804.69
2023-05-14T06:48:59.607Z,100807.19
2023-05-14T06:51:28.576Z,100811.53
2023-05-14T06:53:56.052Z,100796.94
2023-05-14T06:56:23.638Z,100791.84
2023-05-14T06:58:51.133Z,100795.22
2023-05-14T07:01:18.695Z,100797.25
2023-05-14T07:03:46.256Z,100791.91
2023-05-14T07:06:13.919Z,100787.81
2023-05-14T07:08:45.852Z,100789.88
2023-05-14T07:11:14.209Z,100799.34
2023-05-14T07:13:42.354Z,100795.66
2023-05-14T07:16:10.510Z,100788.22
2023-05-14T07:18:38.316Z,100785.34
2023-05-14T07:21:06.966Z,100778.31
2023-05-14T07:23:36.076Z,100773.97
2023-05-14T07:26:06.414Z,100770.88
2023-05-14T07:28:34.084Z,100769.66
2023-05-14T07:31:01.630Z,100769.41
2023-05-14T07:33:29.089Z,100761.97
2023-05-14T07:35:56.636Z,100767.94
2023-05-14T07:38:24.098Z,100767.94
2023-05-14T07:40:51.641Z,100765.06
2023-05-14T07:43:38.365Z,100765.63
2023-05-14T07:46:05.892Z,100768.09
2023-05-14T07:48:33.512Z,100773.91
2023-05-14T07:51:01.121Z,100768.13
2023-05-14T07:53:28.556Z,100762.53
2023-05-14T07:55:56.185Z,100760.66
2023-05-14T07:58:25.037Z,100768.28
2023-05-14T08:00:52.698Z,100759.63
2023-05-14T08:03:20.678Z,100767.25
2023-05-14T08:05:48.252Z,100760.47
2023-05-14T08:08:16.154Z,100755.47
2023-05-14T08:10:45.499Z,100751.50
2023-05-14T08:13:13.211Z,100754.19
2023-05-14T08:15:42.180Z,100750.84
2023-05-14T08:18:09.668Z,100751.63
2023-05-14T08:20:37.185Z,100752.03
2023-05-14T08:23:04.720Z,100741.88
2023-05-14T08:25:32.312Z,100742.44
2023-05-14T08:28:00.347Z,100742.00
2023-05-14T08:30:28.075Z,100736.16
2023-05-14T08:32:57.236Z,100735.72
2023-05-14T08:35:24.749Z,100728.31
2023-05-14T08:37:52.432Z,100720.81
2023-05-14T08:40:20.190Z,100728.22
2023-05-14T08:42:48.446Z,100719.31
2023-05-14T08:45:20.097Z,100718.56
2023-05-14T08:47:49.768Z,100716.94
2023-05-14T08:50:22.419Z,100710.25
2023-05-14T08:52:50.761Z,100718.88
2023-05-14T08:55:18.253Z,100718.06
2023-05-14T08:57:46.339Z,100708.25
2023-05-14T09:00:15.204Z,100712.00
2023-05-14T09:02:43.259Z,100701.78
2023-05-14T09:05:11.025Z,100702.28
2023-05-14T09:07:39.884Z,100704.59
2023-05-14T09:10:08.976Z,100697.03
2023-05-14T09:12:36.455Z,100695.16
2023-05-14T09:15:04.679Z,100699.72
2023-05-14T09:17:32.249Z,100697.06
2023-05-14T09:19:59.799Z,100697.25
2023-05-14T09:22:33.116Z,100691.59
2023-05-14T09:25:06.746Z,100697.38
2023-05-14T09:27:38.369Z,100693.84
2023-05-14T09:30:10.661Z,100688.59
2023-05-14T09:32:39.480Z,100691.50
2023-05-14T09:35:16.921Z,100688.97
2023-05-14T09:37:46.244Z,100691.97
2023-05-14T09:40:16.203Z,100692.56
2023-05-14T09:42:44.072Z,100696.88
2023-05-14T09:45:12.654Z,100695.84
2023-05-14T09:47:40.789Z,100694.81
2023-05-14T09:50:08.961Z,100693.31
2023-05-14T09:52:36.504Z,100685.69
2023-05-14T09:55:04.065Z,100683.56
2023-05-14T09:57:33.640Z,100691.75
2023-05-14T10:00:01.170Z,100698.38
2023-05-14T10:02:36.668Z,100690.91
2023-05-14T10:05:07.104Z,100687.63
2023-05-14T10:07:41.551Z,100693.88
2023-05-14T10:10:13.628Z,100686.22
2023-05-14T10:12:44.677Z,100690.53
2023-05-14T10:15:19.273Z,100686.00
2023-05-14T10:17:50.390Z,100691.41
2023-05-14T10:20:18.060Z,100678.78
2023-05-14T10:22:45.618Z,100689.19
2023-05-14T10:25:13.256Z,100684.88
2023-05-14T10:27:42.314Z,100683.56
2023-05-14T10:30:13.528Z,100683.56
2023-05-14T10:32:42.053Z,100678.44
2023-05-14T10:35:22.161Z,100688.66
2023-05-14T10:37:52.220Z,100684.56
2023-05-14T10:40:20.043Z,100679.88
2023-05-14T10:42:49.713Z,100668.97
2023-05-14T10:45:17.598Z,100673.81
2023-05-14T10:47:46.821Z,100676.38
2023-05-14T10:50:15.935Z,100665.13
2023-05-14T10:52:44.266Z,100661.63
2023-05-14T10:55:14.679Z,100667.16
2023-05-14T10:57:44.549Z,100665.38
2023-05-14T11:00:14.991Z,100668.69
2023-05-14T11:02:43.568Z,100662.00
2023-05-14T11:05:13.900Z,100662.00
2023-05-14T11:07:42.998Z,100657.06
2023-05-14T11:10:12.699Z,100646.16
2023-05-14T11:12:41.571Z,100646.47
2023-05-14T11:15:10.998Z,100641.22
2023-05-14T11:17:41.525Z,100649.31
2023-05-14T11:20:10.237Z,100647.44
2023-05-14T11:22:38.711Z,100640.72
2023-05-14T11:25:07.696Z,100650.94
2023-05-14T11:27:36.676Z,100639.88
2023-05-14T11:30:04.884Z,100648.88
2023-05-14T11:32:33.352Z,100645.88
2023-05-14T11:35:02.157Z,100640.97
2023-05-14T11:37:30.675Z,100627.00
2023-05-14T11:40:07.864Z,100628.78
2023-05-14T11:42:35.334Z,100618.84
2023-05-14T11:45:02.920Z,100628.09
2023-05-14T11:47:31.083Z,100620.34
2023-05-14T11:50:00.227Z,100606.88
2023-05-14T11:52:29.007Z,100611.41
2023-05-14T11:54:56.554Z,100613.75
2023-05-14T11:57:25.164Z,100608.09
2023-05-14T11:59:57.635Z,100600.50
2023-05-14T12:02:28.190Z,100594.69
2023-05-14T12:04:55.858Z,100598.31
2023-05-14T12:07:25.343Z,100599.06
2023-05-14T12:09:54.227Z,100585.81
2023-05-14T12:12:23.104Z,100586.06
2023-05-14T12:14:52.547Z,100591.25
2023-05-14T12:17:21.600Z,100590.47
2023-05-14T12:19:50.073Z,100593.91
2023-05-14T12:22:19.020Z,100583.34
2023-05-14T12:24:56.091Z,100577.53
2023-05-14T12:27:24.360Z,100577.81
2023-05-14T12:29:53.382Z,100570.16
2023-05-14T12:32:20.912Z,100563.50
2023-05-14T12:34:48.415Z,100560.03
2023-05-14T12:37:15.971Z,100556.94
2023-05-14T12:39:43.558Z,100550.56
2023-05-14T12:42:12.354Z,100552.91
2023-05-14T12:44:39.887Z,100549.06
2023-05-14T12:47:07.783Z,100542.53
2023-05-14T12:49:35.254Z,100546.03
2023-05-14T12:52:17.389Z,100543.09
2023-05-14T12:54:47.240Z,100545.06
2023-05-14T12:57:16.092Z,100530.41
2023-05-14T12:59:43.586Z,100530.97
2023-05-14T13:02:11.062Z,100528.19
2023-05-14T13:04:40.235Z,100520.47
2023-05-14T13:07:08.829Z,100514.97
2023-05-14T13:09:36.598Z,100509.16
2023-05-14T13:12:04.418Z,100507.34
2023-05-14T13:14:33.857Z,100513.59
2023-05-14T13:17:01.412Z,100514.25
2023-05-14T13:19:29.245Z,100508.56
2023-05-14T13:21:56.724Z,100510.19
2023-05-14T13:24:24.903Z,100508.44
2023-05-14T13:26:52.412Z,100503.22
2023-05-14T13:29:19.876Z,100503.72
2023-05-14T13:31:48.730Z,100499.94
2023-05-14T13:34:16.316Z,100487.75
2023-05-14T13:36:43.945Z,100487.06
2023-05-14T13:39:13.019Z,100485.34
2023-05-14T13:41:41.685Z,100479.94
2023-05-14T13:44:11.984Z,100488.78
2023-05-14T13:46:39.565Z,100477.38
2023-05-14T13:49:08.458Z,100472.53
2023-05-14T13:51:35.959Z,100469.25
2023-05-14T13:54:03.432Z,100468.66
2023-05-14T13:56:30.907Z,100463.69
2023-05-14T13:58:58.429Z,100469.16
2023-05-14T14:01:26.020Z,100464.88
2023-05-14T14:03:56.357Z,100463.75
2023-05-14T14:06:27.211Z,100454.47
2023-05-14T14:08:54.777Z,100459.72
2023-05-14T14:11:22.778Z,100452.53
2023-05-14T14:13:50.251Z,100447.22
2023-05-14T14:16:17.796Z,100441.84
2023-05-14T14:18:45.643Z,100441.22
2023-05-14T14:21:13.188Z,100432.88
2023-05-14T14:23:45.258Z,100427.44
2023-05-14T14:26:13.014Z,100427.38
2023-05-14T14:28:40.912Z,100421.97
2023-05-14T14:31:20.833Z,100419.53
2023-05-14T14:33:48.489Z,100414.41
2023-05-14T14:36:15.972Z,100416.06
2023-05-14T14:38:44.832Z,100409.31
2023-05-14T14:41:12.420Z,100407.94
2023-05-14T14:43:42.082Z,100404.16
2023-05-14T14:46:09.769Z,100409.63
2023-05-14T14:48:38.431Z,100406.97
2023-05-14T14:51:06.771Z,100406.47
2023-05-14T14:53:35.064Z,100411.16
2023-05-14T14:56:04.041Z,100403.03
2023-05-14T14:58:31.998Z,100401.44
2023-05-14T15:00:59.672Z,100404.44
2023-05-14T15:03:27.333Z,100398.69
2023-05-14T15:05:54.977Z,100392.97
2023-05-14T15:08:26.013Z,100398.69
2023-05-14T15:10:53.521Z,100395.53
2023-05-14T15:13:22.541Z,100388.50
2023-05-14T15:15:51.712Z,100391.25
2023-05-14T15:18:19.294Z,100384.53
2023-05-14T15:20:46.861Z,100395.59
2023-05-14T15:23:14.486Z,100403.25
2023-05-14T15:25:42.249Z,100394.84
2023-05-14T15:28:09.789Z,100386.56
2023-05-14T15:30:38.743Z,100376.28
2023-05-14T15:33:08.886Z,100375.25
2023-05-14T15:35:36.481Z,100378.47
2023-05-14T15:38:04.245Z,100383.88
2023-05-14T15:40:33.040Z,100381.19
2023-05-14T15:43:00.645Z,100379.63
2023-05-14T15:45:28.090Z,100376.34
2023-05-14T15:47:56.999Z,100379.63
2023-05-14T15:50:25.739Z,100375.50
2023-05-14T15:52:53.667Z,100375.09
2023-05-14T15:55:21.324Z,100376.50
2023-05-14T15:57:48.753Z,100394.38
2023-05-14T16:00:17.446Z,100401.22
2023-05-14T16:02:45.255Z,100397.34
2023-05-14T16:05:14.738Z,100409.94
2023-05-14T16:07:42.718Z,100408.28
2023-05-14T16:10:11.121Z,100402.19
2023-05-14T16:12:38.609Z,100401.94
2023-05-14T16:15:09.832Z,100403.28
2023-05-14T16:17:37.494Z,100412.13
2023-05-14T16:20:05.909Z,100410.84
2023-05-14T16:22:36.250Z,100403.66
2023-05-14T16:25:04.808Z,100402.91
2023-05-14T16:27:32.541Z,100405.94
2023-05-14T16:30:00.103Z,100400.22
2023-05-14T16:32:27.897Z,100399.06
2023-05-14T16:34:56.426Z,100404.56
2023-05-14T16:37:24.196Z,100406.13
2023-05-14T16:39:53.432Z,100409.72
2023-05-14T16:42:21.304Z,100400.78
2023-05-14T16:44:48.911Z,100395.88
2023-05-14T16:47:16.364Z,100402.94
2023-05-14T16:49:44.204Z,100406.03
2023-05-14T16:52:11.729Z,100405.28
2023-05-14T16:54:39.253Z,100403.72
2023-05-14T16:57:11.027Z,100399.81
2023-05-14T16:59:38.531Z,100398.84
2023-05-14T17:02:06.065Z,100404.31
2023-05-14T17:04:38.662Z,100403.25
2023-05-14T17:07:06.482Z,100404.25
2023-05-14T17:09:34.099Z,100397.63
2023-05-14T17:12:01.781Z,100400.31
2023-05-14T17:14:31.585Z,100397.97
2023-05-14T17:16:59.197Z,100400.22
2023-05-14T17:19:26.774Z,100386.78
2023-05-14T17:21:54.267Z,100393.41
2023-05-14T17:24:21.807Z,100390.47
2023-05-14T17:26:49.358Z,100385.81
2023-05-14T17:29:16.855Z,100388.44
2023-05-14T17:31:45.808Z,100389.19
2023-05-14T17:34:13.635Z,100380.56
2023-05-14T17:36:43.879Z,100379.34
2023-05-14T17:39:11.308Z,100390.13
2023-05-14T17:41:38.900Z,100384.16
2023-05-14T17:44:06.397Z,100393.00
2023-05-14T17:46:34.385Z,100390.13
2023-05-14T17:49:03.317Z,100389.28
2023-05-14T17:51:31.067Z,100398.72
2023-05-14T17:53:58.589Z,100394.28
2023-05-14T17:56:26.467Z,100393.13
2023-05-14T17:58:53.954Z,100392.72
2023-05-14T18:01:21.490Z,100396.44
2023-05-14T18:03:49.213Z,100405.75
2023-05-14T18:06:18.132Z,100399.44
2023-05-14T18:08:45.563Z,100411.19
2023-05-14T18:11:13.028Z,100417.97
2023-05-14T18:13:40.614Z,100417.31
2023-05-14T18:16:08.682Z,100414.41
2023-05-14T18:18:36.222Z,100419.38
2023-05-14T18:21:03.763Z,100410.94
2023-05-14T18:23:32.548Z,100422.09
2023-05-14T18:26:01.422Z,100433.94
2023-05-14T18:28:29.016Z,100427.94
2023-05-14T18:30:56.795Z,100435.09
2023-05-14T18:33:24.294Z,100435.56
2023-05-14T18:35:53.401Z,100424.56
2023-05-14T18:38:20.854Z,100431.25
2023-05-14T18:40:50.222Z,100437.53
2023-05-14T18:43:18.601Z,100435.28
2023-05-14T18:45:47.274Z,100435.63
2023-05-14T18:48:14.826Z,100449.69
2023-05-14T18:50:42.392Z,100444.31
2023-05-14T18:53:09.903Z,100447.00
2023-05-14T18:55:37.426Z,100444.53
2023-05-14T18:58:06.495Z,100449.41
2023-05-14T19:00:34.033Z,100451.63
2023-05-14T19:03:01.626Z,100453.16
2023-05-14T19:05:29.175Z,100452.22
2023-05-14T19:07:57.730Z,100449.69
2023-05-14T19:10:25.243Z,100459.47
2023-05-14T19:12:52.809Z,100462.38
2023-05-14T19:15:21.695Z,100462.84
2023-05-14T19:17:49.329Z,100455.00
2023-05-14T19:20:16.868Z,100462.38
2023-05-14T19:22:44.383Z,100466.38
2023-05-14T19:25:12.192Z,100477.13
2023-05-14T19:27:39.664Z,100466.59
2023-05-14T19:30:08.245Z,100468.91
2023-05-14T19:32:37.942Z,100483.28
2023-05-14T19:35:06.237Z,100470.63
2023-05-14T19:37:34.053Z,100467.44
2023-05-14T19:40:01.537Z,100471.63
2023-05-14T19:42:29.122Z,100473.50
2023-05-14T19:44:56.741Z,100474.31
2023-05-14T19:47:24.236Z,100467.91
2023-05-14T19:49:53.112Z,100468.69
2023-05-14T19:52:20.597Z,100466.69
2023-05-14T19:54:48.034Z,100468.22
2023-05-14T19:57:15.481Z,100467.41
2023-05-14T19:59:44.290Z,100455.16
2023-05-14T20:02:17.925Z,100461.50
2023-05-14T20:04:46.042Z,100460.94
2023-05-14T20:07:15.591Z,100457.78
2023-05-14T20:09:43.173Z,100462.31
2023-05-14T20:12:10.825Z,100450.97
2023-05-14T20:14:39.251Z,100451.06
2023-05-14T20:17:06.775Z,100456.72
2023-05-14T20:19:34.241Z,100461.75
2023-05-14T20:22:01.700Z,100461.19
2023-05-14T20:24:30.627Z,100459.03
2023-05-14T20:26:58.144Z,100467.28
2023-05-14T20:29:25.637Z,100460.31
2023-05-14T20:31:53.274Z,100455.31
2023-05-14T20:34:20.767Z,100454.88
2023-05-14T20:36:48.484Z,100464.28
2023-05-14T20:39:16.045Z,100459.63
2023-05-14T20:41:45.507Z,100457.56
2023-05-14T20:44:13.036Z,100451.28
2023-05-14T20:46:40.969Z,100452.91
2023-05-14T20:49:08.505Z,100453.91
2023-05-14T20:51:36.002Z,100451.44
2023-05-14T20:54:03.518Z,100452.84
2023-05-14T20:56:31.369Z,100455.31
2023-05-14T20:59:00.198Z,100453.91
2023-05-14T21:01:27.697Z,100452.34
2023-05-14T21:03:55.398Z,100453.97
2023-05-14T21:06:23.000Z,100456.66
2023-05-14T21:08:50.531Z,100455.38
2023-05-14T21:11:18.025Z,100450.25
2023-05-14T21:13:45.600Z,100452.84
2023-05-14T21:16:14.606Z,100441.88
2023-05-14T21:18:42.253Z,100447.88
2023-05-14T21:21:09.774Z,100450.69
2023-05-14T21:23:37.408Z,100445.75
2023-05-14T21:26:05.324Z,100453.63
2023-05-14T21:28:32.806Z,100444.81
2023-05-14T21:31:00.313Z,100436.63
2023-05-14T21:33:29.178Z,100444.72
2023-05-14T21:35:56.658Z,100437.94
2023-05-14T21:38:24.259Z,100446.22
2023-05-14T21:40:51.861Z,100441.69
2023-05-14T21:43:19.448Z,100437.09
2023-05-14T21:45:47.139Z,100431.28
2023-05-14T21:48:14.802Z,100432.19
2023-05-14T21:50:43.734Z,100424.00
2023-05-14T21:53:11.306Z,100420.66
2023-05-14T21:55:39.048Z,100421.75
2023-05-14T21:58:07.324Z,100423.94
2023-05-14T22:00:34.805Z,100416.84
2023-05-14T22:03:02.338Z,100409.09
2023-05-14T22:05:30.241Z,100420.28
2023-05-14T22:07:59.126Z,100419.03
2023-05-14T22:10:26.663Z,100410.44
2023-05-14T22:12:54.131Z,100419.09
2023-05-14T22:19:12.108Z,100431.47
2023-05-14T22:21:39.695Z,100425.31
2023-05-14T22:24:08.891Z,100422.41
2023-05-14T22:26:36.413Z,100417.91
2023-05-14T22:29:03.952Z,100422.44
2023-05-14T22:31:31.453Z,100421.19
2023-05-14T22:33:58.945Z,100416.47
2023-05-14T22:36:26.423Z,100414.59
2023-05-14T22:38:53.887Z,100417.47
2023-05-14T22:41:22.855Z,100419.91
2023-05-14T22:43:50.378Z,100419.88
2023-05-14T22:46:17.910Z,100418.28
2023-05-14T22:48:47.953Z,100423.78
2023-05-14T22:51:15.527Z,100416.59
2023-05-14T22:53:43.073Z,100419.47
2023-05-14T22:56:10.652Z,100414.16
2023-05-14T22:58:39.460Z,100397.28
2023-05-14T23:01:07.007Z,100394.00
2023-05-14T23:03:34.491Z,100388.81
2023-05-14T23:06:01.964Z,100390.59
2023-05-14T23:08:29.478Z,100390.53
2023-05-14T23:10:57.012Z,100378.75
2023-05-14T23:13:24.475Z,100385.56
2023-05-14T23:15:53.344Z,100385.13
2023-05-14T23:18:21.027Z,100390.19
2023-05-14T23:20:48.943Z,100381.72
2023-05-14T23:23:16.472Z,100375.84
2023-05-14T23:25:44.082Z,100376.53
2023-05-14T23:28:11.869Z,100369.59
2023-05-14T23:30:39.323Z,100373.66
2023-05-14T23:33:08.287Z,100366.19
2023-05-14T23:35:36.294Z,100375.78
2023-05-14T23:38:04.725Z,100372.44
2023-05-14T23:40:32.501Z,100370.16
2023-05-14T23:43:00.400Z,100371.91
2023-05-14T23:45:27.980Z,100371.25
2023-05-14T23:47:55.962Z,100367.56
2023-05-14T23:50:24.911Z,100364.34
2023-05-14T23:52:52.947Z,100362.19
2023-05-14T23:55:20.882Z,100355.00
2023-05-14T23:57:48.671Z,100347.13
